createdAt,value
2022-10-18T00:00:20.389Z,2.30
2022-10-18T00:02:47.454Z,2.40
2022-10-18T00:05:14.425Z,2.05
2022-10-18T00:07:41.415Z,2.40
2022-10-18T00:10:09.790Z,2.00
2022-10-18T00:12:38.275Z,2.03
2022-10-18T00:15:07.889Z,1.88
2022-10-18T00:17:36.725Z,2.00
2022-10-18T00:20:06.024Z,1.95
2022-10-18T00:22:39.545Z,2.45
2022-10-18T00:25:08.110Z,1.95
2022-10-18T00:27:35.928Z,1.92
2022-10-18T00:30:03.186Z,2.50
2022-10-18T00:32:30.863Z,2.15
2022-10-18T00:34:58.088Z,2.08
2022-10-18T00:37:25.134Z,2.35
2022-10-18T00:42:30.720Z,2.50
2022-10-18T00:45:13.028Z,2.50
2022-10-18T00:47:40.960Z,2.60
2022-10-18T00:50:09.014Z,2.72
2022-10-18T00:52:41.669Z,2.20
2022-10-18T00:55:10.054Z,2.45
2022-10-18T00:57:38.331Z,2.40
2022-10-18T01:00:10.070Z,2.30
2022-10-18T01:02:40.943Z,2.08
2022-10-18T01:05:13.961Z,2.30
2022-10-18T01:08:24.286Z,2.33
2022-10-18T01:11:09.769Z,1.85
2022-10-18T01:13:57.105Z,2.40
2022-10-18T01:17:08.219Z,2.60
2022-10-18T01:20:37.363Z,2.22
2022-10-18T01:23:43.556Z,2.30
2022-10-18T01:26:35.086Z,2.45
2022-10-18T01:29:41.522Z,2.33
2022-10-18T01:32:25.366Z,2.17
2022-10-18T01:34:59.550Z,3.05
2022-10-18T01:37:29.332Z,2.25
2022-10-18T01:40:00.001Z,2.75
2022-10-18T01:42:27.508Z,2.88
2022-10-18T01:44:54.997Z,2.45
2022-10-18T01:47:23.362Z,2.60
2022-10-18T01:49:56.403Z,2.67
2022-10-18T01:52:23.348Z,2.92
2022-10-18T01:54:50.377Z,2.40
2022-10-18T01:57:36.833Z,2.65
2022-10-18T02:00:25.192Z,2.70
2022-10-18T02:03:26.045Z,2.75
2022-10-18T02:11:46.342Z,2.50
2022-10-18T02:14:16.195Z,2.55
2022-10-18T02:16:53.450Z,2.97
2022-10-18T02:19:29.774Z,2.40
2022-10-18T02:21:58.445Z,2.17
2022-10-18T02:24:34.558Z,2.47
2022-10-18T02:27:02.221Z,2.80
2022-10-18T02:29:30.733Z,2.05
2022-10-18T02:32:24.828Z,2.53
2022-10-18T02:35:10.296Z,2.60
2022-10-18T02:37:40.159Z,2.72
2022-10-18T02:40:10.098Z,2.23
2022-10-18T02:42:44.190Z,2.85
2022-10-18T02:45:13.145Z,3.00
2022-10-18T02:47:40.103Z,2.45
2022-10-18T02:50:07.796Z,2.70
2022-10-18T02:52:34.739Z,2.60
2022-10-18T02:55:01.821Z,2.85
2022-10-18T02:57:29.092Z,2.40
2022-10-18T02:59:56.397Z,2.47
2022-10-18T03:02:23.417Z,2.63
2022-10-18T03:04:50.408Z,2.45
2022-10-18T03:07:17.385Z,3.10
2022-10-18T03:09:44.381Z,3.30
2022-10-18T03:12:11.343Z,2.63
2022-10-18T03:14:38.276Z,2.20
2022-10-18T03:17:05.257Z,2.60
2022-10-18T03:19:32.189Z,2.75
2022-10-18T03:21:59.160Z,2.60
2022-10-18T03:24:26.134Z,2.15
2022-10-18T03:26:53.043Z,2.38
2022-10-18T03:29:19.970Z,2.67
2022-10-18T03:31:47.107Z,2.50
2022-10-18T03:34:15.650Z,2.38
2022-10-18T03:36:42.581Z,2.60
2022-10-18T03:39:12.132Z,2.30
2022-10-18T03:41:39.202Z,2.92
2022-10-18T03:44:06.152Z,2.83
2022-10-18T03:46:33.084Z,2.53
2022-10-18T03:49:00.047Z,2.58
2022-10-18T03:51:26.995Z,2.38
2022-10-18T03:53:53.918Z,2.60
2022-10-18T03:56:20.980Z,2.25
2022-10-18T03:58:48.003Z,2.65
2022-10-18T04:01:14.999Z,2.53
2022-10-18T04:03:41.944Z,2.30
2022-10-18T04:06:09.860Z,2.55
2022-10-18T04:08:36.877Z,2.42
2022-10-18T04:11:11.131Z,2.30
2022-10-18T04:13:38.723Z,1.98
2022-10-18T04:16:05.873Z,2.20
2022-10-18T04:18:32.867Z,2.30
2022-10-18T04:20:59.827Z,2.38
2022-10-18T04:23:26.777Z,2.33
2022-10-18T04:25:53.753Z,2.45
2022-10-18T04:28:20.670Z,2.33
2022-10-18T04:30:54.127Z,2.15
2022-10-18T04:33:21.099Z,2.47
2022-10-18T04:35:51.532Z,2.42
2022-10-18T04:38:19.776Z,2.50
2022-10-18T04:40:46.857Z,1.95
2022-10-18T04:43:13.860Z,2.75
2022-10-18T04:45:40.802Z,2.28
2022-10-18T04:48:08.885Z,2.70
2022-10-18T04:50:35.990Z,2.45
2022-10-18T04:53:14.001Z,2.63
2022-10-18T04:55:50.019Z,2.53
2022-10-18T04:58:18.555Z,2.45
2022-10-18T05:00:45.849Z,2.13
2022-10-18T05:03:13.919Z,2.60
2022-10-18T05:06:00.111Z,2.42
2022-10-18T05:08:28.346Z,2.35
2022-10-18T05:10:55.376Z,2.30
2022-10-18T05:13:22.342Z,2.78
2022-10-18T05:15:49.775Z,2.97
2022-10-18T05:18:16.786Z,2.17
2022-10-18T05:20:43.954Z,2.28
2022-10-18T05:23:11.040Z,2.72
2022-10-18T05:25:40.287Z,2.50
2022-10-18T05:28:15.618Z,3.20
2022-10-18T05:30:48.117Z,2.03
2022-10-18T05:33:15.053Z,2.05
2022-10-18T05:35:42.415Z,2.50
2022-10-18T05:38:09.366Z,2.17
2022-10-18T05:40:39.494Z,2.38
2022-10-18T05:43:06.450Z,2.30
2022-10-18T05:45:33.461Z,2.63
2022-10-18T05:48:00.493Z,2.10
2022-10-18T05:50:27.541Z,2.47
2022-10-18T05:53:06.865Z,2.42
2022-10-18T05:55:39.609Z,2.70
2022-10-18T05:58:06.675Z,2.55
2022-10-18T06:00:33.795Z,2.92
2022-10-18T06:03:00.912Z,3.25
2022-10-18T06:05:28.135Z,2.95
2022-10-18T06:07:56.602Z,3.10
2022-10-18T06:10:23.590Z,2.90
2022-10-18T06:12:50.629Z,2.85
2022-10-18T06:15:20.201Z,3.00
2022-10-18T06:17:47.426Z,2.63
2022-10-18T06:20:14.498Z,2.88
2022-10-18T06:22:41.478Z,2.38
2022-10-18T06:25:09.029Z,3.13
2022-10-18T06:27:35.966Z,2.78
2022-10-18T06:30:03.521Z,2.33
2022-10-18T06:32:30.534Z,2.50
2022-10-18T06:34:57.503Z,2.60
2022-10-18T06:37:24.479Z,2.65
2022-10-18T06:39:51.442Z,2.90
2022-10-18T06:42:20.458Z,2.55
2022-10-18T06:44:49.943Z,2.65
2022-10-18T06:47:16.922Z,2.67
2022-10-18T06:49:43.899Z,2.85
2022-10-18T06:52:10.843Z,2.63
2022-10-18T06:54:37.758Z,2.63
2022-10-18T06:57:04.734Z,2.95
2022-10-18T06:59:31.731Z,2.90
2022-10-18T07:01:58.741Z,2.85
2022-10-18T07:04:29.745Z,3.03
2022-10-18T07:06:56.982Z,2.72
2022-10-18T07:09:24.051Z,2.92
2022-10-18T07:11:52.742Z,2.75
2022-10-18T07:14:19.990Z,2.95
2022-10-18T07:16:46.957Z,2.92
2022-10-18T07:19:14.924Z,3.17
2022-10-18T07:21:41.890Z,3.10
2022-10-18T07:24:08.822Z,2.50
2022-10-18T07:26:36.438Z,3.13
2022-10-18T07:29:11.640Z,2.33
2022-10-18T07:31:39.057Z,2.72
2022-10-18T07:34:08.729Z,2.65
2022-10-18T07:36:35.677Z,2.65
2022-10-18T07:39:02.943Z,2.60
2022-10-18T07:41:31.860Z,3.35
2022-10-18T07:43:59.077Z,2.92
2022-10-18T07:46:26.075Z,2.65
2022-10-18T07:48:53.203Z,2.67
2022-10-18T07:51:21.155Z,2.80
2022-10-18T07:53:48.535Z,2.90
2022-10-18T07:56:21.629Z,2.47
2022-10-18T07:58:54.026Z,2.42
2022-10-18T08:01:25.939Z,2.95
2022-10-18T08:03:53.967Z,2.70
2022-10-18T08:06:22.665Z,2.97
2022-10-18T08:08:49.908Z,2.60
2022-10-18T08:11:23.919Z,2.28
2022-10-18T08:13:52.257Z,2.47
2022-10-18T08:18:59.399Z,2.58
2022-10-18T08:21:26.876Z,3.00
2022-10-18T08:23:53.944Z,3.03
2022-10-18T08:26:22.670Z,2.80
2022-10-18T08:29:03.633Z,2.72
2022-10-18T08:31:37.222Z,2.38
2022-10-18T08:34:04.161Z,2.70
2022-10-18T08:36:31.087Z,2.75
2022-10-18T08:38:58.024Z,2.35
2022-10-18T08:41:37.162Z,2.85
2022-10-18T08:44:22.635Z,2.92
2022-10-18T08:46:55.101Z,2.92
2022-10-18T08:49:29.758Z,2.42
2022-10-18T08:51:58.723Z,3.05
2022-10-18T08:54:52.439Z,2.70
2022-10-18T08:57:20.353Z,3.10
2022-10-18T08:59:47.307Z,2.65
2022-10-18T09:02:28.911Z,3.00
2022-10-18T09:05:01.402Z,2.97
2022-10-18T09:07:46.159Z,2.78
2022-10-18T09:10:43.429Z,2.78
2022-10-18T09:14:03.066Z,2.95
2022-10-18T09:16:55.044Z,2.67
2022-10-18T09:19:55.805Z,2.50
2022-10-18T09:25:10.266Z,2.42
2022-10-18T09:27:52.346Z,2.88
2022-10-18T09:30:41.058Z,2.60
2022-10-18T09:33:28.379Z,2.80
2022-10-18T09:36:03.170Z,2.55
2022-10-18T09:38:44.459Z,2.35
2022-10-18T09:41:26.690Z,2.45
2022-10-18T09:44:25.675Z,2.95
2022-10-18T09:47:01.705Z,2.63
2022-10-18T09:49:45.070Z,2.72
2022-10-18T09:52:21.284Z,2.30
2022-10-18T09:55:23.793Z,2.65
2022-10-18T09:57:56.215Z,2.80
2022-10-18T10:00:44.311Z,3.05
2022-10-18T10:03:16.989Z,2.97
2022-10-18T10:05:45.024Z,3.00
2022-10-18T10:08:12.446Z,2.90
2022-10-18T10:10:46.488Z,3.10
2022-10-18T10:13:17.706Z,2.75
2022-10-18T10:15:57.458Z,2.75
2022-10-18T10:18:54.243Z,2.72
2022-10-18T10:21:22.247Z,2.88
2022-10-18T10:23:59.528Z,3.30
2022-10-18T10:26:34.095Z,2.92
2022-10-18T10:29:01.210Z,2.45
2022-10-18T10:31:32.734Z,3.03
2022-10-18T10:34:13.107Z,2.58
2022-10-18T10:36:52.317Z,3.00
2022-10-18T10:39:22.623Z,2.67
2022-10-18T10:41:58.907Z,2.47
2022-10-18T10:44:30.386Z,3.15
2022-10-18T10:46:57.874Z,3.40
2022-10-18T10:49:48.586Z,3.33
2022-10-18T10:55:30.477Z,3.17
2022-10-18T10:57:53.537Z,3.20
2022-10-18T11:00:43.916Z,3.63
2022-10-18T11:03:34.280Z,3.30
2022-10-18T11:06:01.816Z,3.60
2022-10-18T11:08:37.824Z,3.33
2022-10-18T11:11:38.847Z,3.78
2022-10-18T11:14:30.536Z,3.72
2022-10-18T11:17:27.996Z,3.15
2022-10-18T11:20:20.843Z,3.70
2022-10-18T11:22:56.750Z,3.80
2022-10-18T11:25:34.162Z,3.72
2022-10-18T11:28:29.587Z,3.88
2022-10-18T11:31:14.872Z,3.50
2022-10-18T11:34:10.335Z,3.60
2022-10-18T11:37:22.865Z,3.40
2022-10-18T11:40:24.447Z,3.05
2022-10-18T11:43:57.509Z,3.17
2022-10-18T11:47:20.045Z,2.90
2022-10-18T11:49:50.788Z,2.80
2022-10-18T11:53:04.157Z,3.10
2022-10-18T11:56:01.969Z,2.75
2022-10-18T11:59:11.027Z,2.90
2022-10-18T12:02:17.612Z,2.47
2022-10-18T12:05:18.937Z,2.58
2022-10-18T12:08:34.677Z,2.55
2022-10-18T12:11:26.706Z,2.15
2022-10-18T12:14:02.086Z,2.63
2022-10-18T12:16:50.913Z,2.38
2022-10-18T12:19:27.610Z,2.55
2022-10-18T12:22:02.434Z,2.53
2022-10-18T12:24:31.895Z,2.13
2022-10-18T12:27:01.505Z,2.50
2022-10-18T12:29:44.324Z,2.43
2022-10-18T12:32:19.189Z,2.30
2022-10-18T12:35:00.821Z,2.28
2022-10-18T12:37:55.435Z,1.98
2022-10-18T12:40:42.765Z,1.90
2022-10-18T12:43:18.822Z,1.60
2022-10-18T12:45:58.775Z,1.80
2022-10-18T12:48:39.076Z,1.73
2022-10-18T12:51:20.794Z,1.42
2022-10-18T12:54:02.882Z,1.50
2022-10-18T12:56:29.689Z,1.50
2022-10-18T12:59:15.030Z,1.48
2022-10-18T13:01:50.818Z,1.50
2022-10-18T13:04:32.252Z,1.80
2022-10-18T13:07:04.695Z,1.33
2022-10-18T13:09:44.957Z,1.40
2022-10-18T13:12:14.329Z,1.58
2022-10-18T13:15:25.852Z,1.42
2022-10-18T13:17:59.772Z,1.60
2022-10-18T13:20:48.351Z,1.42
2022-10-18T13:23:42.370Z,1.50
2022-10-18T13:26:43.364Z,1.60
2022-10-18T13:29:58.248Z,1.83
2022-10-18T13:32:47.440Z,1.88
2022-10-18T13:35:54.964Z,1.63
2022-10-18T13:38:38.204Z,1.67
2022-10-18T13:41:21.767Z,1.70
2022-10-18T13:44:03.012Z,1.55
2022-10-18T13:46:32.830Z,1.35
2022-10-18T13:49:39.111Z,1.55
2022-10-18T13:53:08.113Z,1.58
2022-10-18T13:55:56.240Z,1.20
2022-10-18T13:59:15.801Z,1.50
2022-10-18T14:02:50.422Z,1.65
2022-10-18T14:06:10.521Z,1.48
2022-10-18T14:08:56.177Z,1.80
2022-10-18T14:11:35.966Z,1.88
2022-10-18T14:14:50.924Z,1.67
2022-10-18T14:17:42.879Z,1.90
2022-10-18T14:20:49.533Z,1.75
2022-10-18T14:23:34.485Z,1.95
2022-10-18T14:26:20.469Z,1.98
2022-10-18T14:29:07.362Z,2.10
2022-10-18T14:31:35.191Z,1.73
2022-10-18T14:34:03.059Z,1.60
2022-10-18T14:36:40.983Z,2.13
2022-10-18T14:39:23.837Z,2.17
2022-10-18T14:41:53.858Z,2.20
2022-10-18T14:44:31.284Z,2.45
2022-10-18T14:47:15.004Z,2.45
2022-10-18T14:49:46.537Z,2.28
2022-10-18T14:52:18.562Z,1.88
2022-10-18T14:54:46.435Z,2.13
2022-10-18T14:57:34.957Z,2.17
2022-10-18T15:00:17.422Z,2.28
2022-10-18T15:02:44.584Z,2.28
2022-10-18T15:05:25.104Z,2.63
2022-10-18T15:07:53.401Z,1.90
2022-10-18T15:10:33.580Z,2.08
2022-10-18T15:13:09.905Z,1.92
2022-10-18T15:15:38.327Z,2.15
2022-10-18T15:18:06.839Z,2.10
2022-10-18T15:20:42.908Z,2.25
2022-10-18T15:23:26.930Z,2.30
2022-10-18T15:26:12.482Z,2.05
2022-10-18T15:28:51.399Z,2.10
2022-10-18T15:31:30.039Z,1.90
2022-10-18T15:34:18.125Z,1.67
2022-10-18T15:36:45.748Z,1.42
2022-10-18T15:39:22.448Z,1.55
2022-10-18T15:41:57.478Z,1.50
2022-10-18T15:44:51.147Z,1.40
2022-10-18T15:47:21.596Z,1.75
2022-10-18T15:49:54.473Z,1.45
2022-10-18T15:52:40.585Z,1.35
2022-10-18T15:55:29.408Z,1.25
2022-10-18T15:58:11.351Z,1.38
2022-10-18T16:00:38.335Z,1.35
2022-10-18T16:03:09.182Z,1.35
2022-10-18T16:05:38.087Z,1.50
2022-10-18T16:08:05.322Z,1.40
2022-10-18T16:10:32.583Z,1.10
2022-10-18T16:12:59.792Z,1.50
2022-10-18T16:15:26.894Z,1.25
2022-10-18T16:17:53.826Z,1.40
2022-10-18T16:20:23.869Z,1.20
2022-10-18T16:22:50.855Z,1.20
2022-10-18T16:25:18.040Z,1.33
2022-10-18T16:27:44.966Z,1.17
2022-10-18T16:30:20.398Z,1.13
2022-10-18T16:32:48.825Z,1.42
2022-10-18T16:35:15.894Z,1.25
2022-10-18T16:37:43.276Z,1.35
2022-10-18T16:40:24.732Z,1.45
2022-10-18T16:42:52.070Z,1.25
2022-10-18T16:45:19.342Z,1.55
2022-10-18T16:47:46.608Z,1.80
2022-10-18T16:50:18.753Z,2.05
2022-10-18T16:52:45.701Z,1.85
2022-10-18T16:55:24.771Z,2.08
2022-10-18T16:57:52.033Z,1.95
2022-10-18T17:00:22.818Z,1.73
2022-10-18T17:02:50.457Z,1.52
2022-10-18T17:05:18.961Z,1.70
2022-10-18T17:07:46.884Z,1.42
2022-10-18T17:10:20.916Z,1.80
2022-10-18T17:12:47.966Z,1.88
2022-10-18T17:15:14.925Z,1.77
2022-10-18T17:17:42.018Z,2.42
2022-10-18T17:20:16.177Z,2.45
2022-10-18T17:22:43.094Z,2.35
2022-10-18T17:25:10.048Z,2.20
2022-10-18T17:27:37.058Z,2.45
2022-10-18T17:30:04.541Z,2.00
2022-10-18T17:32:31.626Z,2.22
2022-10-18T17:35:00.703Z,1.85
2022-10-18T17:37:27.743Z,1.63
2022-10-18T17:39:54.928Z,1.50
2022-10-18T17:42:21.941Z,1.90
2022-10-18T17:44:49.099Z,1.63
2022-10-18T17:47:16.782Z,1.63
2022-10-18T17:49:44.824Z,1.33
2022-10-18T17:52:11.928Z,1.42
2022-10-18T17:54:38.889Z,1.30
2022-10-18T17:57:05.818Z,1.25
2022-10-18T17:59:33.008Z,1.50
2022-10-18T18:02:00.079Z,1.35
2022-10-18T18:04:27.085Z,1.23
2022-10-18T18:06:54.229Z,1.38
2022-10-18T18:09:21.287Z,1.35
2022-10-18T18:11:49.271Z,0.95
2022-10-18T18:14:16.862Z,1.00
2022-10-18T18:16:46.624Z,1.02
2022-10-18T18:19:14.862Z,1.00
2022-10-18T18:21:42.611Z,1.05
2022-10-18T18:24:10.450Z,1.00
2022-10-18T18:26:40.765Z,0.95
2022-10-18T18:29:08.030Z,1.25
2022-10-18T18:31:38.853Z,0.88
2022-10-18T18:34:07.272Z,0.70
2022-10-18T18:36:34.295Z,0.88
2022-10-18T18:39:01.467Z,0.63
2022-10-18T18:41:29.047Z,0.52
2022-10-18T18:44:05.439Z,1.00
2022-10-18T18:46:38.720Z,1.00
2022-10-18T18:49:07.972Z,0.80
2022-10-18T18:51:37.990Z,0.88
2022-10-18T18:54:05.151Z,0.80
2022-10-18T18:56:32.191Z,0.60
2022-10-18T18:59:00.184Z,0.75
2022-10-18T19:01:30.852Z,0.95
2022-10-18T19:06:41.642Z,0.85
2022-10-18T19:09:25.476Z,0.85
2022-10-18T19:11:54.826Z,0.65
2022-10-18T19:14:24.766Z,0.88
2022-10-18T19:16:59.339Z,1.30
2022-10-18T19:19:29.611Z,1.63
2022-10-18T19:22:03.591Z,1.80
2022-10-18T19:24:31.273Z,1.70
2022-10-18T19:27:05.343Z,2.15
2022-10-18T19:29:38.276Z,1.83
2022-10-18T19:32:08.513Z,1.90
2022-10-18T19:34:35.942Z,1.50
2022-10-18T19:37:03.736Z,0.95
2022-10-18T19:39:33.772Z,0.90
2022-10-18T19:42:04.460Z,0.95
2022-10-18T19:44:34.783Z,0.90
2022-10-18T19:47:02.714Z,1.17
2022-10-18T19:49:29.930Z,0.90
2022-10-18T19:51:57.458Z,0.77
2022-10-18T19:54:24.981Z,1.17
2022-10-18T19:56:51.982Z,0.90
2022-10-18T19:59:19.313Z,1.10
2022-10-18T20:01:46.335Z,1.10
2022-10-18T20:04:14.359Z,1.20
2022-10-18T20:06:41.879Z,0.93
2022-10-18T20:09:13.374Z,0.77
2022-10-18T20:11:43.299Z,1.10
2022-10-18T20:14:10.757Z,1.30
2022-10-18T20:16:37.827Z,1.30
2022-10-18T20:19:07.117Z,1.45
2022-10-18T20:21:35.680Z,1.30
2022-10-18T20:24:07.482Z,1.65
2022-10-18T20:26:35.753Z,1.42
2022-10-18T20:29:03.749Z,2.03
2022-10-18T20:31:35.419Z,1.45
2022-10-18T20:34:06.198Z,1.50
2022-10-18T20:39:01.919Z,1.42
2022-10-18T20:41:33.650Z,1.52
2022-10-18T20:44:04.307Z,1.50
2022-10-18T20:46:34.199Z,1.33
2022-10-18T20:49:01.449Z,1.33
2022-10-18T20:51:28.678Z,1.38
2022-10-18T20:53:56.027Z,1.50
2022-10-18T20:56:26.508Z,2.10
2022-10-18T20:58:56.725Z,2.50
2022-10-18T21:01:33.121Z,1.50
2022-10-18T21:04:06.910Z,2.00
2022-10-18T21:06:40.921Z,1.75
2022-10-18T21:09:14.827Z,2.22
2022-10-18T21:11:44.926Z,2.00
2022-10-18T21:14:21.014Z,2.00
2022-10-18T21:16:49.798Z,1.90
2022-10-18T21:19:19.527Z,2.17
2022-10-18T21:21:50.447Z,1.80
2022-10-18T21:24:19.376Z,1.35
2022-10-18T21:26:47.785Z,1.70
2022-10-18T21:29:20.777Z,1.42
2022-10-18T21:31:49.070Z,1.20
2022-10-18T21:34:17.420Z,1.58
2022-10-18T21:36:47.112Z,1.30
2022-10-18T21:39:20.610Z,1.20
2022-10-18T21:41:49.920Z,1.05
2022-10-18T21:44:18.548Z,1.20
2022-10-18T21:46:46.858Z,1.02
2022-10-18T21:49:14.869Z,1.00
2022-10-18T21:51:42.878Z,0.90
2022-10-18T21:54:15.983Z,1.20
2022-10-18T21:56:43.432Z,1.17
2022-10-18T21:59:13.022Z,1.50
2022-10-18T22:01:40.491Z,1.80
2022-10-18T22:04:25.175Z,1.60
2022-10-18T22:06:52.278Z,1.23
2022-10-18T22:09:21.045Z,1.20
2022-10-18T22:11:52.648Z,1.13
2022-10-18T22:14:21.052Z,1.20
2022-10-18T22:16:48.199Z,1.98
2022-10-18T22:19:15.194Z,1.55
2022-10-18T22:21:42.133Z,1.73
2022-10-18T22:24:09.562Z,1.92
2022-10-18T22:26:39.799Z,1.52
2022-10-18T22:29:33.184Z,1.90
2022-10-18T22:32:01.750Z,1.92
2022-10-18T22:34:28.734Z,1.60
2022-10-18T22:36:56.377Z,1.50
2022-10-18T22:39:24.527Z,1.73
2022-10-18T22:41:55.601Z,1.30
2022-10-18T22:44:22.714Z,1.40
2022-10-18T22:46:49.659Z,1.33
2022-10-18T22:49:16.625Z,1.13
2022-10-18T22:51:43.816Z,1.38
2022-10-18T22:54:11.033Z,1.30
2022-10-18T22:56:38.082Z,1.38
2022-10-18T22:59:05.136Z,1.45
2022-10-18T23:01:32.461Z,1.80
2022-10-18T23:04:00.530Z,1.60
2022-10-18T23:06:34.055Z,1.10
2022-10-18T23:09:05.966Z,1.48
2022-10-18T23:11:35.102Z,1.33
2022-10-18T23:14:03.924Z,1.17
2022-10-18T23:16:31.395Z,1.30
2022-10-18T23:18:59.369Z,1.40
2022-10-18T23:21:28.485Z,1.20
2022-10-18T23:23:56.121Z,1.10
2022-10-18T23:26:26.604Z,1.17
2022-10-18T23:28:54.404Z,0.80
2022-10-18T23:31:29.493Z,1.10
2022-10-18T23:34:00.251Z,1.10
2022-10-18T23:38:55.569Z,0.75
2022-10-18T23:41:23.641Z,1.00
2022-10-18T23:43:50.918Z,1.10
2022-10-18T23:46:18.605Z,0.90
2022-10-18T23:48:46.545Z,0.90
2022-10-18T23:51:14.158Z,0.93
2022-10-18T23:53:41.516Z,1.20
2022-10-18T23:56:15.661Z,0.80
2022-10-18T23:58:44.188Z,1.13
